createdAt,value
2024-05-09T00:01:24.840Z,9.82
2024-05-09T00:03:26.455Z,8.75
2024-05-09T00:05:28.082Z,9.07
2024-05-09T00:07:29.631Z,8.18
2024-05-09T00:09:31.169Z,7.95
2024-05-09T00:11:32.810Z,7.32
2024-05-09T00:13:34.384Z,8.65
2024-05-09T00:15:36.751Z,8.52
2024-05-09T00:17:38.868Z,8.20
2024-05-09T00:19:40.582Z,8.52
2024-05-09T00:21:44.769Z,8.23
2024-05-09T00:23:46.279Z,8.15
2024-05-09T00:25:47.859Z,7.55
2024-05-09T00:27:49.446Z,8.40
2024-05-09T00:29:51.099Z,8.70
2024-05-09T00:31:52.737Z,9.52
2024-05-09T00:33:54.546Z,8.63
2024-05-09T00:35:56.158Z,7.82
2024-05-09T00:37:57.895Z,8.15
2024-05-09T00:39:59.504Z,7.97
2024-05-09T00:42:01.100Z,8.77
2024-05-09T00:44:02.703Z,8.40
2024-05-09T00:46:04.815Z,8.90
2024-05-09T00:48:08.801Z,8.68
2024-05-09T00:52:21.651Z,8.27
2024-05-09T00:54:23.710Z,8.18
2024-05-09T00:56:25.702Z,7.40
2024-05-09T00:58:29.000Z,7.03
2024-05-09T01:00:37.923Z,7.75
2024-05-09T01:02:41.817Z,7.70
2024-05-09T01:04:43.754Z,7.70
2024-05-09T01:06:45.418Z,8.00
2024-05-09T01:08:47.575Z,8.25
2024-05-09T01:10:49.285Z,7.60
2024-05-09T01:12:50.933Z,7.18
2024-05-09T01:14:52.489Z,7.38
2024-05-09T01:16:54.300Z,6.72
2024-05-09T01:18:56.360Z,6.90
2024-05-09T01:20:58.113Z,6.55
2024-05-09T01:23:00.699Z,7.38
2024-05-09T01:25:02.250Z,7.57
2024-05-09T01:27:04.126Z,6.38
2024-05-09T01:29:05.771Z,6.80
2024-05-09T01:31:07.376Z,6.97
2024-05-09T01:33:10.754Z,6.97
2024-05-09T01:35:13.772Z,7.20
2024-05-09T01:37:15.346Z,6.57
2024-05-09T01:39:17.161Z,7.90
2024-05-09T01:41:18.723Z,7.35
2024-05-09T01:43:20.286Z,7.75
2024-05-09T01:45:21.884Z,7.93
2024-05-09T01:47:23.664Z,7.20
2024-05-09T01:49:25.541Z,7.13
2024-05-09T01:51:27.212Z,7.57
2024-05-09T01:53:28.780Z,7.65
2024-05-09T01:55:30.384Z,6.90
2024-05-09T01:57:31.905Z,7.82
2024-05-09T01:59:33.459Z,6.97
2024-05-09T02:01:55.574Z,7.10
2024-05-09T02:03:56.721Z,6.55
2024-05-09T02:05:58.362Z,6.45
2024-05-09T02:07:59.954Z,6.88
2024-05-09T02:10:01.495Z,6.88
2024-05-09T02:12:03.221Z,6.97
2024-05-09T02:14:04.824Z,6.68
2024-05-09T02:16:11.283Z,7.78
2024-05-09T02:18:13.641Z,6.55
2024-05-09T02:20:22.621Z,6.68
2024-05-09T02:22:31.132Z,7.80
2024-05-09T02:24:32.660Z,7.57
2024-05-09T02:26:34.199Z,7.00
2024-05-09T02:28:35.755Z,6.63
2024-05-09T02:30:40.722Z,6.53
2024-05-09T02:32:43.823Z,6.95
2024-05-09T02:34:45.441Z,7.05
2024-05-09T02:36:47.101Z,6.57
2024-05-09T02:38:48.657Z,7.00
2024-05-09T02:42:42.198Z,6.40
2024-05-09T02:44:43.716Z,6.75
2024-05-09T02:46:45.242Z,6.95
2024-05-09T02:48:46.860Z,6.40
2024-05-09T02:50:48.499Z,6.63
2024-05-09T02:52:50.106Z,6.72
2024-05-09T02:54:51.697Z,7.05
2024-05-09T02:56:53.235Z,7.55
2024-05-09T02:58:56.773Z,6.68
2024-05-09T03:00:58.412Z,6.25
2024-05-09T03:03:00.216Z,6.30
2024-05-09T03:05:01.927Z,6.97
2024-05-09T03:07:03.622Z,6.70
2024-05-09T03:09:07.251Z,7.28
2024-05-09T03:11:08.946Z,6.15
2024-05-09T03:13:13.828Z,6.95
2024-05-09T03:15:18.326Z,6.45
2024-05-09T03:17:19.990Z,6.82
2024-05-09T03:19:21.836Z,7.35
2024-05-09T03:21:23.591Z,6.75
2024-05-09T03:23:25.142Z,6.20
2024-05-09T03:25:26.750Z,7.07
2024-05-09T03:27:28.330Z,5.25
2024-05-09T03:29:29.884Z,6.03
2024-05-09T03:31:31.436Z,6.03
2024-05-09T03:33:33.115Z,5.95
2024-05-09T03:35:34.874Z,6.80
2024-05-09T03:37:36.426Z,6.20
2024-05-09T03:39:38.186Z,7.82
2024-05-09T03:41:39.779Z,7.00
2024-05-09T03:43:41.315Z,7.90
2024-05-09T03:45:43.369Z,8.10
2024-05-09T03:47:45.119Z,7.47
2024-05-09T03:49:46.991Z,7.30
2024-05-09T03:51:48.570Z,7.57
2024-05-09T03:53:50.083Z,7.18
2024-05-09T03:55:51.612Z,6.88
2024-05-09T03:57:53.214Z,7.65
2024-05-09T03:59:54.716Z,6.38
2024-05-09T04:01:56.526Z,7.13
2024-05-09T04:03:58.315Z,6.53
2024-05-09T04:05:59.842Z,6.55
2024-05-09T04:08:01.529Z,6.43
2024-05-09T04:10:04.101Z,5.45
2024-05-09T04:12:07.796Z,5.72
2024-05-09T04:14:09.488Z,5.25
2024-05-09T04:16:11.287Z,5.63
2024-05-09T04:18:12.993Z,5.25
2024-05-09T04:20:24.240Z,4.93
2024-05-09T04:22:34.827Z,5.15
2024-05-09T04:24:36.450Z,5.13
2024-05-09T04:26:37.997Z,5.25
2024-05-09T04:28:39.589Z,5.88
2024-05-09T04:30:42.137Z,4.85
2024-05-09T04:32:44.396Z,5.32
2024-05-09T04:34:46.106Z,4.78
2024-05-09T04:36:47.658Z,5.03
2024-05-09T04:38:49.206Z,5.40
2024-05-09T04:40:50.839Z,5.43
2024-05-09T04:42:52.379Z,4.22
2024-05-09T04:44:56.498Z,5.15
2024-05-09T04:46:59.862Z,4.88
2024-05-09T04:49:01.541Z,4.70
2024-05-09T04:51:03.506Z,3.75
2024-05-09T04:53:06.476Z,4.53
2024-05-09T04:55:08.592Z,4.00
2024-05-09T04:57:10.145Z,3.83
2024-05-09T04:59:11.723Z,4.80
2024-05-09T05:01:15.385Z,4.38
2024-05-09T05:03:17.523Z,4.80
2024-05-09T05:05:19.507Z,4.53
2024-05-09T05:07:21.176Z,4.65
2024-05-09T05:09:22.732Z,4.20
2024-05-09T05:11:24.344Z,4.50
2024-05-09T05:13:31.268Z,3.78
2024-05-09T05:15:32.815Z,4.40
2024-05-09T05:17:34.605Z,4.05
2024-05-09T05:19:36.310Z,3.65
2024-05-09T05:21:37.903Z,4.68
2024-05-09T05:23:41.057Z,4.60
2024-05-09T05:25:42.794Z,7.07
2024-05-09T05:27:44.417Z,5.75
2024-05-09T05:29:45.966Z,5.97
2024-05-09T05:31:47.555Z,6.75
2024-05-09T05:33:49.322Z,5.78
2024-05-09T05:35:51.327Z,5.15
2024-05-09T05:37:52.922Z,6.30
2024-05-09T05:39:54.473Z,6.78
2024-05-09T05:41:56.093Z,6.22
2024-05-09T05:43:57.667Z,5.20
2024-05-09T05:45:59.215Z,5.30
2024-05-09T05:48:03.771Z,5.90
2024-05-09T05:50:14.479Z,6.82
2024-05-09T05:52:22.317Z,7.53
2024-05-09T05:54:23.867Z,7.65
2024-05-09T05:56:26.423Z,7.47
2024-05-09T05:58:28.042Z,8.52
2024-05-09T06:00:37.000Z,8.55
2024-05-09T06:02:41.177Z,9.32
2024-05-09T06:04:43.105Z,7.18
2024-05-09T06:06:44.745Z,8.07
2024-05-09T06:08:46.374Z,7.65
2024-05-09T06:10:48.098Z,7.88
2024-05-09T06:12:49.692Z,8.75
2024-05-09T06:14:51.207Z,9.07
2024-05-09T06:16:54.710Z,9.18
2024-05-09T06:18:57.743Z,8.45
2024-05-09T06:20:59.725Z,8.63
2024-05-09T06:23:02.367Z,7.90
2024-05-09T06:25:04.201Z,8.48
2024-05-09T06:27:06.267Z,8.55
2024-05-09T06:29:08.157Z,7.78
2024-05-09T06:31:09.741Z,7.97
2024-05-09T06:33:13.857Z,7.85
2024-05-09T06:35:17.269Z,7.40
2024-05-09T06:37:18.828Z,7.50
2024-05-09T06:39:20.408Z,7.45
2024-05-09T06:41:21.972Z,7.43
2024-05-09T06:43:23.661Z,6.80
2024-05-09T06:45:25.248Z,7.82
2024-05-09T06:47:26.940Z,6.78
2024-05-09T06:49:30.141Z,7.20
2024-05-09T06:51:31.794Z,6.65
2024-05-09T06:53:33.530Z,7.03
2024-05-09T06:55:36.304Z,7.30
2024-05-09T06:57:39.163Z,7.15
2024-05-09T06:59:43.115Z,7.80
2024-05-09T07:01:44.887Z,6.93
2024-05-09T07:03:46.531Z,7.05
2024-05-09T07:05:49.379Z,7.63
2024-05-09T07:07:51.523Z,6.93
2024-05-09T07:09:53.120Z,6.60
2024-05-09T07:11:54.761Z,6.82
2024-05-09T07:13:56.536Z,5.97
2024-05-09T07:15:58.115Z,5.95
2024-05-09T07:17:59.749Z,5.82
2024-05-09T07:20:01.420Z,5.97
2024-05-09T07:22:03.116Z,6.40
2024-05-09T07:24:05.000Z,6.30
2024-05-09T07:26:06.598Z,6.55
2024-05-09T07:28:13.587Z,6.35
2024-05-09T07:30:22.939Z,5.63
2024-05-09T07:32:28.978Z,6.50
2024-05-09T07:34:30.653Z,6.45
2024-05-09T07:36:32.259Z,8.07
2024-05-09T07:38:33.927Z,6.97
2024-05-09T07:40:37.060Z,6.85
2024-05-09T07:42:38.801Z,6.20
2024-05-09T07:44:40.387Z,5.47
2024-05-09T07:52:38.131Z,6.32
2024-05-09T07:53:37.787Z,6.25
2024-05-09T07:55:36.710Z,6.07
2024-05-09T07:57:38.412Z,6.15
2024-05-09T07:59:39.961Z,6.25
2024-05-09T08:01:41.554Z,6.00
2024-05-09T08:03:43.188Z,6.28
2024-05-09T08:05:44.953Z,6.60
2024-05-09T08:07:47.094Z,6.55
2024-05-09T08:09:48.628Z,6.20
2024-05-09T08:11:52.843Z,6.88
2024-05-09T08:13:54.412Z,5.78
2024-05-09T08:15:56.018Z,5.38
2024-05-09T08:17:57.879Z,6.13
2024-05-09T08:19:59.481Z,6.20
2024-05-09T08:22:06.856Z,5.93
2024-05-09T08:24:10.434Z,5.57
2024-05-09T08:26:12.081Z,5.57
2024-05-09T08:28:13.966Z,6.20
2024-05-09T08:30:22.000Z,6.85
2024-05-09T08:32:32.423Z,6.28
2024-05-09T08:34:34.237Z,4.85
2024-05-09T08:36:35.888Z,6.40
2024-05-09T08:38:37.473Z,5.65
2024-05-09T08:40:39.320Z,6.03
2024-05-09T08:42:47.844Z,6.10
2024-05-09T08:44:49.919Z,5.05
2024-05-09T08:46:51.720Z,6.35
2024-05-09T08:48:56.448Z,6.00
2024-05-09T08:53:01.034Z,5.07
2024-05-09T08:55:03.569Z,5.60
2024-05-09T08:57:06.601Z,5.32
2024-05-09T08:59:13.460Z,5.47
2024-05-09T09:01:18.043Z,5.53
2024-05-09T09:03:23.242Z,5.70
2024-05-09T09:05:30.082Z,5.38
2024-05-09T09:07:33.446Z,6.28
2024-05-09T09:09:43.417Z,6.00
2024-05-09T09:11:45.174Z,5.65
2024-05-09T09:13:46.894Z,5.32
2024-05-09T09:15:49.814Z,5.93
2024-05-09T09:18:01.043Z,6.18
2024-05-09T09:20:03.177Z,6.47
2024-05-09T09:22:05.113Z,5.32
2024-05-09T09:24:09.944Z,5.72
2024-05-09T09:26:16.120Z,5.53
2024-05-09T09:28:17.994Z,5.35
2024-05-09T09:30:31.680Z,5.53
2024-05-09T09:32:38.450Z,5.47
2024-05-09T09:34:41.451Z,5.47
2024-05-09T09:36:44.149Z,5.93
2024-05-09T09:38:47.109Z,5.30
2024-05-09T09:40:50.494Z,5.32
2024-05-09T09:42:57.600Z,5.07
2024-05-09T09:45:04.812Z,5.28
2024-05-09T09:47:08.645Z,5.53
2024-05-09T09:49:10.399Z,5.50
2024-05-09T09:51:13.715Z,5.30
2024-05-09T09:53:16.430Z,5.30
2024-05-09T09:55:18.451Z,5.25
2024-05-09T09:57:20.580Z,5.57
2024-05-09T09:59:22.952Z,5.68
2024-05-09T10:01:24.682Z,5.90
2024-05-09T10:03:27.406Z,5.38
2024-05-09T10:05:30.132Z,5.45
2024-05-09T10:07:33.392Z,5.15
2024-05-09T10:09:35.607Z,5.07
2024-05-09T10:11:41.983Z,5.53
2024-05-09T10:13:47.324Z,4.95
2024-05-09T10:15:53.385Z,4.70
2024-05-09T10:18:05.175Z,5.63
2024-05-09T10:20:14.862Z,4.82
2024-05-09T10:22:28.815Z,5.40
2024-05-09T10:24:49.944Z,4.53
2024-05-09T10:26:55.231Z,5.63
2024-05-09T10:28:58.671Z,5.68
2024-05-09T10:31:07.172Z,5.20
2024-05-09T10:33:11.154Z,5.22
2024-05-09T10:35:15.040Z,5.60
2024-05-09T10:37:17.447Z,5.15
2024-05-09T10:39:20.763Z,4.82
2024-05-09T10:41:23.379Z,4.60
2024-05-09T10:43:25.578Z,5.05
2024-05-09T10:45:27.183Z,5.93
2024-05-09T10:47:29.774Z,5.03
2024-05-09T10:49:31.474Z,5.22
2024-05-09T10:51:33.244Z,5.72
2024-05-09T10:54:01.182Z,5.47
2024-05-09T10:56:02.737Z,4.97
2024-05-09T10:58:04.542Z,4.85
2024-05-09T11:00:15.563Z,5.05
2024-05-09T11:02:20.977Z,4.88
2024-05-09T11:04:22.892Z,5.50
2024-05-09T11:06:25.483Z,5.20
2024-05-09T11:08:27.674Z,5.40
2024-05-09T11:10:33.792Z,4.93
2024-05-09T11:12:36.081Z,5.88
2024-05-09T11:14:37.792Z,5.35
2024-05-09T11:16:39.430Z,4.90
2024-05-09T11:18:41.678Z,5.30
2024-05-09T11:20:43.672Z,5.28
2024-05-09T11:22:45.367Z,4.80
2024-05-09T11:24:47.091Z,4.57
2024-05-09T11:26:48.715Z,5.15
2024-05-09T11:28:51.741Z,5.22
2024-05-09T11:31:03.790Z,4.97
2024-05-09T11:33:05.716Z,5.35
2024-05-09T11:35:07.494Z,5.53
2024-05-09T11:37:10.635Z,5.10
2024-05-09T11:39:14.595Z,5.60
2024-05-09T11:41:18.436Z,5.03
2024-05-09T11:43:20.919Z,5.00
2024-05-09T11:45:22.779Z,5.00
2024-05-09T11:47:24.938Z,5.00
2024-05-09T11:49:27.086Z,4.80
2024-05-09T11:51:28.879Z,4.78
2024-05-09T11:53:30.417Z,5.28
2024-05-09T11:55:36.169Z,4.95
2024-05-09T11:57:38.928Z,5.70
2024-05-09T11:59:40.974Z,5.22
2024-05-09T12:01:42.580Z,4.97
2024-05-09T12:03:44.469Z,4.55
2024-05-09T12:05:46.356Z,4.50
2024-05-09T12:07:48.056Z,4.72
2024-05-09T12:09:49.648Z,4.90
2024-05-09T12:11:51.324Z,4.45
2024-05-09T12:13:52.924Z,4.45
2024-05-09T12:15:54.507Z,4.60
2024-05-09T12:17:58.916Z,4.55
2024-05-09T12:20:05.442Z,5.03
2024-05-09T12:22:08.616Z,4.97
2024-05-09T12:24:10.231Z,4.60
2024-05-09T12:26:11.834Z,4.85
2024-05-09T12:28:14.577Z,5.10
2024-05-09T12:30:24.434Z,4.85
2024-05-09T12:32:30.467Z,4.60
2024-05-09T12:34:32.343Z,4.43
2024-05-09T12:36:34.033Z,4.72
2024-05-09T12:38:35.579Z,4.65
2024-05-09T12:40:38.888Z,4.80
2024-05-09T12:42:41.033Z,4.45
2024-05-09T12:44:42.717Z,3.85
2024-05-09T12:46:44.298Z,4.10
2024-05-09T12:48:46.811Z,4.30
2024-05-09T12:50:48.854Z,4.35
2024-05-09T12:52:50.561Z,4.30
2024-05-09T12:54:52.250Z,3.58
2024-05-09T12:56:53.974Z,3.72
2024-05-09T12:58:55.544Z,3.90
2024-05-09T13:00:57.452Z,4.22
2024-05-09T13:02:59.175Z,4.70
2024-05-09T13:05:00.902Z,5.00
2024-05-09T13:07:04.307Z,4.47
2024-05-09T13:09:07.286Z,4.38
2024-05-09T13:11:08.887Z,4.32
2024-05-09T13:13:10.609Z,4.30
2024-05-09T13:15:12.434Z,5.38
2024-05-09T13:17:13.991Z,4.18
2024-05-09T13:19:15.646Z,4.03
2024-05-09T13:21:17.217Z,3.92
2024-05-09T13:23:18.751Z,4.57
2024-05-09T13:25:20.456Z,4.13
2024-05-09T13:27:22.357Z,4.85
2024-05-09T13:29:25.184Z,4.32
2024-05-09T13:31:27.173Z,4.78
2024-05-09T13:33:29.094Z,4.10
2024-05-09T13:35:31.997Z,5.30
2024-05-09T13:37:33.698Z,4.85
2024-05-09T13:39:35.281Z,5.00
2024-05-09T13:41:36.886Z,4.95
2024-05-09T13:43:38.867Z,4.93
2024-05-09T13:45:40.622Z,4.97
2024-05-09T13:47:42.319Z,4.72
2024-05-09T13:49:44.264Z,4.72
2024-05-09T13:51:45.872Z,4.40
2024-05-09T13:53:47.453Z,4.82
2024-05-09T13:55:49.070Z,4.72
2024-05-09T13:57:50.723Z,4.93
2024-05-09T13:59:52.314Z,4.88
2024-05-09T14:01:53.985Z,4.63
2024-05-09T14:03:55.628Z,4.40
2024-05-09T14:05:57.430Z,4.50
2024-05-09T14:07:59.089Z,4.60
2024-05-09T14:10:00.702Z,4.65
2024-05-09T14:12:02.272Z,4.60
2024-05-09T14:14:04.028Z,4.65
2024-05-09T14:16:06.176Z,4.20
2024-05-09T14:18:11.528Z,4.40
2024-05-09T14:20:23.272Z,4.20
2024-05-09T14:22:31.587Z,4.03
2024-05-09T14:24:33.446Z,4.15
2024-05-09T14:26:35.164Z,3.92
2024-05-09T14:28:36.835Z,4.07
2024-05-09T14:30:39.317Z,4.13
2024-05-09T14:32:41.418Z,4.38
2024-05-09T14:34:43.070Z,4.07
2024-05-09T14:36:44.810Z,3.75
2024-05-09T14:38:46.362Z,4.30
2024-05-09T14:40:48.053Z,4.07
2024-05-09T14:42:49.789Z,3.72
2024-05-09T14:44:51.360Z,3.75
2024-05-09T14:46:52.993Z,3.75
2024-05-09T14:48:55.312Z,4.43
2024-05-09T14:50:56.979Z,4.78
2024-05-09T14:52:58.484Z,4.72
2024-05-09T14:55:00.996Z,4.50
2024-05-09T14:57:02.891Z,4.53
2024-05-09T14:59:04.830Z,4.38
2024-05-09T15:01:06.788Z,5.00
2024-05-09T15:03:08.715Z,4.32
2024-05-09T15:05:11.521Z,4.63
2024-05-09T15:07:13.219Z,5.13
2024-05-09T15:09:14.817Z,4.97
2024-05-09T15:11:16.353Z,5.30
2024-05-09T15:13:21.539Z,4.78
2024-05-09T15:15:23.169Z,5.47
2024-05-09T15:17:24.717Z,5.15
2024-05-09T15:19:26.534Z,5.13
2024-05-09T15:21:28.253Z,5.47
2024-05-09T15:23:29.802Z,5.00
2024-05-09T15:25:32.787Z,6.40
2024-05-09T15:27:34.451Z,5.55
2024-05-09T15:29:36.092Z,5.78
2024-05-09T15:31:37.628Z,5.68
2024-05-09T15:33:39.643Z,5.28
2024-05-09T15:35:41.966Z,5.28
2024-05-09T15:37:45.598Z,5.43
2024-05-09T15:39:47.320Z,5.68
2024-05-09T15:41:48.852Z,6.07
2024-05-09T15:43:50.361Z,5.10
2024-05-09T15:45:52.208Z,5.43
2024-05-09T15:47:53.856Z,5.53
2024-05-09T15:49:55.632Z,6.03
2024-05-09T15:51:57.299Z,5.68
2024-05-09T15:53:58.874Z,5.25
2024-05-09T15:56:00.489Z,5.30
2024-05-09T15:58:02.879Z,5.03
2024-05-09T16:00:07.856Z,5.85
2024-05-09T16:02:13.911Z,5.00
2024-05-09T16:04:16.063Z,5.53
2024-05-09T16:06:17.822Z,5.47
2024-05-09T16:08:19.393Z,5.90
2024-05-09T16:10:25.930Z,5.90
2024-05-09T16:12:33.211Z,6.05
2024-05-09T16:14:34.848Z,6.10
2024-05-09T16:16:36.434Z,5.55
2024-05-09T16:18:38.224Z,5.88
2024-05-09T16:20:42.135Z,6.20
2024-05-09T16:22:46.007Z,5.95
2024-05-09T16:24:48.192Z,6.03
2024-05-09T16:26:49.827Z,5.60
2024-05-09T16:28:51.363Z,6.00
2024-05-09T16:30:54.135Z,6.18
2024-05-09T16:32:55.886Z,5.90
2024-05-09T16:34:57.534Z,6.25
2024-05-09T16:37:00.143Z,5.10
2024-05-09T16:39:01.773Z,5.35
2024-05-09T16:41:03.414Z,4.72
2024-05-09T16:43:05.451Z,5.13
2024-05-09T16:45:07.469Z,6.13
2024-05-09T16:47:09.247Z,5.38
2024-05-09T16:49:11.309Z,5.38
2024-05-09T16:51:13.063Z,5.13
2024-05-09T16:53:14.746Z,6.35
2024-05-09T16:55:16.653Z,5.18
2024-05-09T16:57:18.343Z,6.07
2024-05-09T16:59:21.608Z,5.30
2024-05-09T17:01:23.197Z,5.50
2024-05-09T17:03:24.907Z,5.40
2024-05-09T17:05:28.444Z,5.05
2024-05-09T17:07:30.047Z,5.30
2024-05-09T17:09:31.604Z,5.30
2024-05-09T17:11:35.566Z,5.32
2024-05-09T17:13:39.304Z,5.15
2024-05-09T17:15:41.237Z,5.22
2024-05-09T17:17:42.924Z,5.70
2024-05-09T17:19:47.264Z,4.97
2024-05-09T17:21:48.802Z,5.57
2024-05-09T17:23:54.183Z,4.82
2024-05-09T17:25:55.753Z,5.30
2024-05-09T17:27:59.490Z,6.20
2024-05-09T17:30:01.202Z,4.82
2024-05-09T17:32:02.912Z,5.28
2024-05-09T17:34:04.515Z,5.30
2024-05-09T17:36:06.537Z,5.30
2024-05-09T17:38:08.056Z,5.50
2024-05-09T17:40:16.885Z,5.63
2024-05-09T17:42:18.839Z,5.18
2024-05-09T17:44:20.400Z,5.72
2024-05-09T17:46:22.219Z,4.97
2024-05-09T17:48:24.174Z,5.75
2024-05-09T17:50:31.666Z,4.68
2024-05-09T17:52:37.074Z,5.22
2024-05-09T17:54:38.708Z,5.78
2024-05-09T17:56:40.321Z,5.35
2024-05-09T17:58:41.977Z,5.25
2024-05-09T18:00:43.711Z,5.18
2024-05-09T18:02:45.523Z,5.18
2024-05-09T18:04:47.416Z,4.95
2024-05-09T18:06:49.145Z,5.75
2024-05-09T18:08:50.728Z,5.68
2024-05-09T18:10:55.206Z,5.93
2024-05-09T18:12:57.151Z,5.93
2024-05-09T18:14:59.192Z,5.30
2024-05-09T18:17:00.875Z,5.68
2024-05-09T18:19:02.828Z,6.78
2024-05-09T18:21:04.809Z,5.43
2024-05-09T18:23:06.463Z,5.65
2024-05-09T18:25:08.034Z,5.88
2024-05-09T18:27:09.723Z,5.97
2024-05-09T18:29:11.416Z,5.57
2024-05-09T18:31:15.049Z,7.00
2024-05-09T18:33:17.040Z,6.30
2024-05-09T18:35:18.832Z,6.63
2024-05-09T18:37:20.694Z,6.03
2024-05-09T18:39:22.326Z,5.22
2024-05-09T18:41:23.845Z,5.13
2024-05-09T18:43:31.140Z,6.75
2024-05-09T18:45:38.214Z,5.43
2024-05-09T18:47:40.491Z,5.68
2024-05-09T18:49:42.247Z,5.47
2024-05-09T18:51:44.034Z,5.90
2024-05-09T18:53:46.163Z,5.00
2024-05-09T18:55:47.791Z,5.18
2024-05-09T18:57:49.403Z,5.07
2024-05-09T18:59:51.164Z,5.50
2024-05-09T19:01:52.896Z,5.43
2024-05-09T19:03:55.351Z,5.80
2024-05-09T19:05:57.211Z,5.43
2024-05-09T19:07:58.849Z,5.20
2024-05-09T19:10:00.802Z,5.82
2024-05-09T19:12:06.241Z,5.45
2024-05-09T19:14:07.783Z,5.70
2024-05-09T19:16:09.907Z,5.85
2024-05-09T19:18:15.253Z,5.90
2024-05-09T19:20:24.667Z,5.60
2024-05-09T19:22:30.358Z,5.07
2024-05-09T19:24:31.909Z,5.05
2024-05-09T19:26:33.472Z,4.78
2024-05-09T19:28:35.092Z,5.15
2024-05-09T19:30:40.866Z,5.13
2024-05-09T19:32:44.118Z,4.70
2024-05-09T19:34:45.829Z,5.05
2024-05-09T19:36:47.547Z,4.90
2024-05-09T19:38:51.475Z,4.97
2024-05-09T19:42:46.529Z,5.05
2024-05-09T19:44:48.249Z,6.13
2024-05-09T19:46:49.785Z,5.22
2024-05-09T19:48:51.534Z,6.05
2024-05-09T19:50:53.629Z,5.25
2024-05-09T19:52:55.377Z,5.63
2024-05-09T19:54:56.999Z,5.50
2024-05-09T19:56:58.655Z,6.28
2024-05-09T19:59:00.195Z,5.53
2024-05-09T20:01:01.886Z,4.60
2024-05-09T20:03:03.594Z,5.35
2024-05-09T20:05:05.607Z,5.30
2024-05-09T20:07:07.361Z,5.65
2024-05-09T20:09:08.987Z,5.63
2024-05-09T20:11:10.842Z,6.07
2024-05-09T20:13:13.777Z,5.65
2024-05-09T20:15:15.495Z,6.03
2024-05-09T20:17:17.016Z,6.00
2024-05-09T20:19:18.804Z,6.43
2024-05-09T20:21:21.686Z,6.43
2024-05-09T20:23:23.200Z,6.85
2024-05-09T20:25:25.116Z,6.13
2024-05-09T20:27:26.713Z,6.35
2024-05-09T20:29:28.240Z,7.13
2024-05-09T20:31:29.904Z,6.57
2024-05-09T20:33:31.532Z,7.47
2024-05-09T20:35:33.441Z,6.65
2024-05-09T20:37:35.146Z,6.80
2024-05-09T20:39:36.718Z,7.43
2024-05-09T20:41:44.168Z,7.15
2024-05-09T20:43:45.733Z,8.13
2024-05-09T20:45:47.276Z,7.05
2024-05-09T20:47:49.869Z,7.38
2024-05-09T20:49:51.574Z,8.13
2024-05-09T20:51:53.180Z,8.10
2024-05-09T20:53:56.048Z,7.78
2024-05-09T20:55:57.630Z,8.02
2024-05-09T20:57:59.357Z,7.22
2024-05-09T21:00:01.506Z,7.25
2024-05-09T21:02:03.319Z,7.68
2024-05-09T21:04:05.279Z,8.05
2024-05-09T21:06:07.216Z,8.27
2024-05-09T21:08:09.020Z,8.25
2024-05-09T21:10:15.811Z,7.10
2024-05-09T21:12:23.850Z,7.95
2024-05-09T21:14:25.549Z,7.03
2024-05-09T21:16:27.138Z,6.95
2024-05-09T21:18:28.726Z,7.60
2024-05-09T21:20:33.213Z,7.72
2024-05-09T21:22:35.134Z,7.50
2024-05-09T21:24:36.725Z,6.93
2024-05-09T21:26:38.294Z,7.20
2024-05-09T21:28:39.978Z,6.57
2024-05-09T21:30:43.155Z,7.57
2024-05-09T21:32:45.118Z,7.10
2024-05-09T21:34:46.873Z,7.72
2024-05-09T21:36:48.591Z,7.40
2024-05-09T21:38:50.133Z,6.78
2024-05-09T21:40:51.768Z,7.43
2024-05-09T21:42:53.424Z,8.35
2024-05-09T21:44:55.030Z,7.10
2024-05-09T21:46:56.599Z,7.47
2024-05-09T21:48:58.295Z,7.80
2024-05-09T21:50:59.844Z,7.43
2024-05-09T21:53:01.665Z,7.03
2024-05-09T21:55:03.232Z,7.75
2024-05-09T21:57:06.521Z,7.22
2024-05-09T21:59:08.131Z,7.32
2024-05-09T22:01:09.754Z,7.38
2024-05-09T22:03:12.311Z,7.53
2024-05-09T22:05:14.458Z,7.88
2024-05-09T22:07:16.438Z,7.55
2024-05-09T22:09:18.104Z,8.30
2024-05-09T22:11:19.737Z,7.53
2024-05-09T22:13:21.623Z,7.07
2024-05-09T22:15:23.556Z,7.68
2024-05-09T22:17:25.163Z,7.45
2024-05-09T22:19:26.815Z,7.15
2024-05-09T22:21:28.432Z,7.25
2024-05-09T22:23:29.948Z,8.05
2024-05-09T22:25:32.340Z,7.47
2024-05-09T22:27:34.506Z,7.65
2024-05-09T22:29:36.198Z,6.80
2024-05-09T22:31:37.936Z,7.60
2024-05-09T22:33:39.859Z,7.43
2024-05-09T22:35:41.812Z,7.40
2024-05-09T22:37:43.389Z,6.57
2024-05-09T22:39:45.174Z,6.47
2024-05-09T22:41:46.744Z,7.85
2024-05-09T22:43:48.280Z,7.55
2024-05-09T22:45:50.044Z,7.15
2024-05-09T22:47:51.948Z,8.13
2024-05-09T22:49:53.750Z,7.53
2024-05-09T22:51:55.442Z,8.55
2024-05-09T22:53:57.033Z,8.20
2024-05-09T22:55:58.568Z,7.55
2024-05-09T22:58:00.266Z,8.02
2024-05-09T23:00:01.880Z,7.90
2024-05-09T23:02:03.741Z,7.90
2024-05-09T23:04:05.733Z,7.25
2024-05-09T23:06:07.625Z,7.43
2024-05-09T23:08:10.522Z,8.10
2024-05-09T23:10:17.332Z,8.25
2024-05-09T23:12:26.282Z,7.60
2024-05-09T23:14:27.915Z,7.93
2024-05-09T23:16:29.555Z,7.40
2024-05-09T23:18:31.154Z,7.82
2024-05-09T23:20:37.783Z,7.22
2024-05-09T23:22:41.310Z,8.32
2024-05-09T23:24:43.035Z,7.38
2024-05-09T23:26:44.769Z,7.75
2024-05-09T23:28:48.246Z,7.93
2024-05-09T23:30:50.054Z,7.70
2024-05-09T23:32:51.732Z,7.93
2024-05-09T23:34:53.334Z,8.13
2024-05-09T23:36:55.045Z,8.38
2024-05-09T23:38:56.625Z,7.72
2024-05-09T23:40:58.204Z,7.50
2024-05-09T23:42:59.897Z,8.15
2024-05-09T23:45:01.464Z,7.43
2024-05-09T23:47:03.228Z,7.22
2024-05-09T23:49:05.766Z,8.35
2024-05-09T23:51:07.359Z,8.35
2024-05-09T23:53:10.077Z,7.85
2024-05-09T23:55:12.524Z,8.07
2024-05-09T23:57:14.138Z,8.00
2024-05-09T23:59:15.709Z,9.18
